sensor_id;sensor_type;location;lat;lon;timestamp;P1;durP1;ratioP1;P2;durP2;ratioP2
34359;SDS011;20624;55.870;26.506;2022-12-18T00:01:15;3.92;;;1.25;;
34359;SDS011;20624;55.870;26.506;2022-12-18T00:03:44;4.20;;;1.02;;
34359;SDS011;20624;55.870;26.506;2022-12-18T00:06:12;3.55;;;0.98;;
34359;SDS011;20624;55.870;26.506;2022-12-18T00:08:43;3.17;;;0.82;;
34359;SDS011;20624;55.870;26.506;2022-12-18T00:11:15;3.15;;;1.08;;
34359;SDS011;20624;55.870;26.506;2022-12-18T00:13:44;3.70;;;0.90;;
34359;SDS011;20624;55.870;26.506;2022-12-18T00:16:13;3.92;;;1.10;;
34359;SDS011;20624;55.870;26.506;2022-12-18T00:18:43;2.72;;;1.08;;
34359;SDS011;20624;55.870;26.506;2022-12-18T00:21:11;3.13;;;1.02;;
34359;SDS011;20624;55.870;26.506;2022-12-18T00:23:40;1.83;;;1.13;;
34359;SDS011;20624;55.870;26.506;2022-12-18T00:26:42;11.88;;;10.95;;
34359;SDS011;20624;55.870;26.506;2022-12-18T00:29:05;23.70;;;21.85;;
34359;SDS011;20624;55.870;26.506;2022-12-18T00:31:33;25.10;;;22.85;;
34359;SDS011;20624;55.870;26.506;2022-12-18T00:34:02;122.45;;;70.35;;
34359;SDS011;20624;55.870;26.506;2022-12-18T00:36:31;203.60;;;106.60;;
34359;SDS011;20624;55.870;26.506;2022-12-18T00:39:00;214.45;;;110.60;;
34359;SDS011;20624;55.870;26.506;2022-12-18T00:41:28;224.88;;;115.72;;
34359;SDS011;20624;55.870;26.506;2022-12-18T00:44:15;206.88;;;107.82;;
34359;SDS011;20624;55.870;26.506;2022-12-18T00:46:43;210.27;;;110.03;;
34359;SDS011;20624;55.870;26.506;2022-12-18T00:49:18;262.95;;;134.48;;
34359;SDS011;20624;55.870;26.506;2022-12-18T00:51:46;125.93;;;66.35;;
34359;SDS011;20624;55.870;26.506;2022-12-18T00:54:14;207.52;;;109.53;;
34359;SDS011;20624;55.870;26.506;2022-12-18T00:56:42;275.42;;;141.30;;
34359;SDS011;20624;55.870;26.506;2022-12-18T00:59:15;289.55;;;150.05;;
34359;SDS011;20624;55.870;26.506;2022-12-18T01:01:43;286.35;;;145.77;;
34359;SDS011;20624;55.870;26.506;2022-12-18T01:04:11;297.05;;;154.23;;
34359;SDS011;20624;55.870;26.506;2022-12-18T01:06:39;285.40;;;146.68;;
34359;SDS011;20624;55.870;26.506;2022-12-18T01:09:07;340.70;;;177.50;;
34359;SDS011;20624;55.870;26.506;2022-12-18T01:11:35;345.55;;;180.65;;
34359;SDS011;20624;55.870;26.506;2022-12-18T01:14:02;371.75;;;195.63;;
34359;SDS011;20624;55.870;26.506;2022-12-18T01:16:30;378.88;;;201.05;;
34359;SDS011;20624;55.870;26.506;2022-12-18T01:18:58;434.92;;;232.45;;
34359;SDS011;20624;55.870;26.506;2022-12-18T01:21:26;2.75;;;0.70;;
34359;SDS011;20624;55.870;26.506;2022-12-18T01:23:55;2.17;;;0.80;;
34359;SDS011;20624;55.870;26.506;2022-12-18T01:26:23;2.63;;;0.88;;
34359;SDS011;20624;55.870;26.506;2022-12-18T01:28:51;296.35;;;156.70;;
34359;SDS011;20624;55.870;26.506;2022-12-18T01:31:27;423.88;;;225.15;;
34359;SDS011;20624;55.870;26.506;2022-12-18T01:33:55;440.17;;;236.52;;
34359;SDS011;20624;55.870;26.506;2022-12-18T01:36:24;473.23;;;256.63;;
34359;SDS011;20624;55.870;26.506;2022-12-18T01:38:52;3.33;;;0.82;;
34359;SDS011;20624;55.870;26.506;2022-12-18T01:41:21;489.35;;;266.73;;
34359;SDS011;20624;55.870;26.506;2022-12-18T01:43:51;3.70;;;1.08;;
34359;SDS011;20624;55.870;26.506;2022-12-18T01:46:20;2.03;;;0.90;;
34359;SDS011;20624;55.870;26.506;2022-12-18T01:48:48;3.22;;;0.82;;
34359;SDS011;20624;55.870;26.506;2022-12-18T01:51:18;3.08;;;0.90;;
34359;SDS011;20624;55.870;26.506;2022-12-18T01:53:46;2.65;;;0.82;;
34359;SDS011;20624;55.870;26.506;2022-12-18T01:56:17;4.18;;;1.13;;
34359;SDS011;20624;55.870;26.506;2022-12-18T01:58:48;422.67;;;225.52;;
34359;SDS011;20624;55.870;26.506;2022-12-18T02:01:18;3.67;;;1.08;;
34359;SDS011;20624;55.870;26.506;2022-12-18T02:03:47;442.70;;;237.55;;
34359;SDS011;20624;55.870;26.506;2022-12-18T02:06:16;498.77;;;269.65;;
34359;SDS011;20624;55.870;26.506;2022-12-18T02:09:02;3.70;;;1.05;;
34359;SDS011;20624;55.870;26.506;2022-12-18T02:14:11;0.98;;;0.55;;
34359;SDS011;20624;55.870;26.506;2022-12-18T02:16:53;3.25;;;0.95;;
34359;SDS011;20624;55.870;26.506;2022-12-18T02:20:09;31.85;;;28.83;;
34359;SDS011;20624;55.870;26.506;2022-12-18T02:24:54;67.10;;;46.90;;
34359;SDS011;20624;55.870;26.506;2022-12-18T02:27:24;447.98;;;241.30;;
34359;SDS011;20624;55.870;26.506;2022-12-18T02:29:53;516.42;;;281.35;;
34359;SDS011;20624;55.870;26.506;2022-12-18T02:32:28;3.67;;;0.95;;
34359;SDS011;20624;55.870;26.506;2022-12-18T02:34:57;2.65;;;1.00;;
34359;SDS011;20624;55.870;26.506;2022-12-18T02:37:26;3.88;;;1.17;;
34359;SDS011;20624;55.870;26.506;2022-12-18T02:39:55;495.42;;;269.77;;
34359;SDS011;20624;55.870;26.506;2022-12-18T02:42:24;3.75;;;1.42;;
34359;SDS011;20624;55.870;26.506;2022-12-18T02:44:52;2.25;;;0.80;;
34359;SDS011;20624;55.870;26.506;2022-12-18T02:47:20;2.58;;;0.77;;
34359;SDS011;20624;55.870;26.506;2022-12-18T02:52:42;3.67;;;1.00;;
34359;SDS011;20624;55.870;26.506;2022-12-18T02:57:49;3.35;;;0.90;;
34359;SDS011;20624;55.870;26.506;2022-12-18T03:00:37;2.42;;;0.82;;
34359;SDS011;20624;55.870;26.506;2022-12-18T03:03:11;3.17;;;0.80;;
34359;SDS011;20624;55.870;26.506;2022-12-18T03:05:56;3.38;;;0.90;;
34359;SDS011;20624;55.870;26.506;2022-12-18T03:08:30;4.00;;;1.08;;
34359;SDS011;20624;55.870;26.506;2022-12-18T03:11:01;4.43;;;1.75;;
34359;SDS011;20624;55.870;26.506;2022-12-18T03:13:36;4.88;;;1.67;;
34359;SDS011;20624;55.870;26.506;2022-12-18T03:16:06;280.95;;;147.98;;
34359;SDS011;20624;55.870;26.506;2022-12-18T03:18:36;501.27;;;271.23;;
34359;SDS011;20624;55.870;26.506;2022-12-18T03:21:06;2.83;;;0.90;;
34359;SDS011;20624;55.870;26.506;2022-12-18T03:23:36;2.95;;;1.02;;
34359;SDS011;20624;55.870;26.506;2022-12-18T03:26:07;5.03;;;1.20;;
34359;SDS011;20624;55.870;26.506;2022-12-18T03:28:39;4.90;;;1.10;;
34359;SDS011;20624;55.870;26.506;2022-12-18T03:31:10;2.60;;;0.85;;
34359;SDS011;20624;55.870;26.506;2022-12-18T03:33:44;3.08;;;1.08;;
34359;SDS011;20624;55.870;26.506;2022-12-18T03:36:12;2.95;;;0.77;;
34359;SDS011;20624;55.870;26.506;2022-12-18T03:38:40;2.67;;;0.80;;
34359;SDS011;20624;55.870;26.506;2022-12-18T03:43:44;4.13;;;1.38;;
34359;SDS011;20624;55.870;26.506;2022-12-18T03:46:28;3.42;;;1.48;;
34359;SDS011;20624;55.870;26.506;2022-12-18T03:48:59;4.35;;;1.40;;
34359;SDS011;20624;55.870;26.506;2022-12-18T03:53:58;463.98;;;248.73;;
34359;SDS011;20624;55.870;26.506;2022-12-18T03:56:28;526.95;;;287.15;;
34359;SDS011;20624;55.870;26.506;2022-12-18T03:58:57;2.70;;;0.68;;
34359;SDS011;20624;55.870;26.506;2022-12-18T04:01:28;621.25;;;359.55;;
34359;SDS011;20624;55.870;26.506;2022-12-18T04:03:58;369.25;;;199.60;;
34359;SDS011;20624;55.870;26.506;2022-12-18T04:06:28;475.73;;;262.63;;
34359;SDS011;20624;55.870;26.506;2022-12-18T04:08:56;488.63;;;265.35;;
34359;SDS011;20624;55.870;26.506;2022-12-18T04:11:24;493.58;;;266.05;;
34359;SDS011;20624;55.870;26.506;2022-12-18T04:13:55;515.38;;;275.17;;
34359;SDS011;20624;55.870;26.506;2022-12-18T04:16:24;465.83;;;245.45;;
34359;SDS011;20624;55.870;26.506;2022-12-18T04:18:52;423.17;;;223.77;;
34359;SDS011;20624;55.870;26.506;2022-12-18T04:21:20;452.92;;;238.85;;
34359;SDS011;20624;55.870;26.506;2022-12-18T04:23:47;485.70;;;256.58;;
34359;SDS011;20624;55.870;26.506;2022-12-18T04:26:15;3.40;;;0.73;;
34359;SDS011;20624;55.870;26.506;2022-12-18T04:28:43;2.35;;;0.68;;
34359;SDS011;20624;55.870;26.506;2022-12-18T04:31:11;3.90;;;0.85;;
34359;SDS011;20624;55.870;26.506;2022-12-18T04:33:39;2.53;;;0.73;;
34359;SDS011;20624;55.870;26.506;2022-12-18T04:36:07;3.10;;;0.80;;
34359;SDS011;20624;55.870;26.506;2022-12-18T04:38:35;3.55;;;1.08;;
34359;SDS011;20624;55.870;26.506;2022-12-18T04:41:03;2.20;;;0.80;;
34359;SDS011;20624;55.870;26.506;2022-12-18T04:43:31;3.67;;;0.80;;
34359;SDS011;20624;55.870;26.506;2022-12-18T04:46:03;8.00;;;1.58;;
34359;SDS011;20624;55.870;26.506;2022-12-18T04:48:31;2.90;;;0.77;;
34359;SDS011;20624;55.870;26.506;2022-12-18T04:50:59;4.22;;;1.00;;
34359;SDS011;20624;55.870;26.506;2022-12-18T04:53:26;2.42;;;0.82;;
34359;SDS011;20624;55.870;26.506;2022-12-18T04:56:04;12.38;;;11.40;;
34359;SDS011;20624;55.870;26.506;2022-12-18T04:58:32;34.47;;;31.08;;
34359;SDS011;20624;55.870;26.506;2022-12-18T05:01:02;2.33;;;0.68;;
34359;SDS011;20624;55.870;26.506;2022-12-18T05:03:30;3.45;;;0.70;;
34359;SDS011;20624;55.870;26.506;2022-12-18T05:05:58;2.70;;;0.68;;
34359;SDS011;20624;55.870;26.506;2022-12-18T05:08:26;2.58;;;0.63;;
34359;SDS011;20624;55.870;26.506;2022-12-18T05:11:04;2.95;;;0.75;;
34359;SDS011;20624;55.870;26.506;2022-12-18T05:13:33;2.45;;;0.70;;
34359;SDS011;20624;55.870;26.506;2022-12-18T05:16:00;4.88;;;0.90;;
34359;SDS011;20624;55.870;26.506;2022-12-18T05:18:29;4.00;;;0.90;;
34359;SDS011;20624;55.870;26.506;2022-12-18T05:20:57;4.18;;;1.00;;
34359;SDS011;20624;55.870;26.506;2022-12-18T05:23:25;2.17;;;0.60;;
34359;SDS011;20624;55.870;26.506;2022-12-18T05:25:54;2.03;;;0.73;;
34359;SDS011;20624;55.870;26.506;2022-12-18T05:28:23;1.77;;;0.70;;
34359;SDS011;20624;55.870;26.506;2022-12-18T05:30:51;2.90;;;0.77;;
34359;SDS011;20624;55.870;26.506;2022-12-18T05:33:20;5.55;;;1.08;;
34359;SDS011;20624;55.870;26.506;2022-12-18T05:35:52;2.95;;;0.70;;
34359;SDS011;20624;55.870;26.506;2022-12-18T05:38:21;2.58;;;0.70;;
34359;SDS011;20624;55.870;26.506;2022-12-18T05:40:49;4.22;;;0.93;;
34359;SDS011;20624;55.870;26.506;2022-12-18T05:43:17;3.05;;;0.70;;
34359;SDS011;20624;55.870;26.506;2022-12-18T05:45:47;3.28;;;1.20;;
34359;SDS011;20624;55.870;26.506;2022-12-18T05:48:15;3.80;;;0.90;;
34359;SDS011;20624;55.870;26.506;2022-12-18T05:50:43;3.38;;;0.95;;
34359;SDS011;20624;55.870;26.506;2022-12-18T05:53:15;5.45;;;1.00;;
34359;SDS011;20624;55.870;26.506;2022-12-18T05:55:43;3.72;;;1.00;;
34359;SDS011;20624;55.870;26.506;2022-12-18T05:58:11;2.22;;;0.70;;
34359;SDS011;20624;55.870;26.506;2022-12-18T06:00:40;3.42;;;0.90;;
34359;SDS011;20624;55.870;26.506;2022-12-18T06:03:09;4.30;;;0.77;;
34359;SDS011;20624;55.870;26.506;2022-12-18T06:05:38;5.25;;;1.05;;
34359;SDS011;20624;55.870;26.506;2022-12-18T06:08:05;6.60;;;1.40;;
34359;SDS011;20624;55.870;26.506;2022-12-18T06:10:33;3.30;;;0.80;;
34359;SDS011;20624;55.870;26.506;2022-12-18T06:13:01;1.90;;;0.60;;
34359;SDS011;20624;55.870;26.506;2022-12-18T06:15:29;1.95;;;0.52;;
34359;SDS011;20624;55.870;26.506;2022-12-18T06:17:56;4.72;;;0.98;;
34359;SDS011;20624;55.870;26.506;2022-12-18T06:20:25;3.50;;;0.85;;
34359;SDS011;20624;55.870;26.506;2022-12-18T06:22:58;4.50;;;0.88;;
34359;SDS011;20624;55.870;26.506;2022-12-18T06:25:26;3.67;;;0.95;;
34359;SDS011;20624;55.870;26.506;2022-12-18T06:27:54;4.32;;;0.98;;
34359;SDS011;20624;55.870;26.506;2022-12-18T06:30:22;2.80;;;0.70;;
34359;SDS011;20624;55.870;26.506;2022-12-18T06:32:50;2.67;;;0.90;;
34359;SDS011;20624;55.870;26.506;2022-12-18T06:35:22;4.28;;;1.02;;
34359;SDS011;20624;55.870;26.506;2022-12-18T06:37:50;6.28;;;3.63;;
34359;SDS011;20624;55.870;26.506;2022-12-18T06:40:18;2.88;;;0.80;;
34359;SDS011;20624;55.870;26.506;2022-12-18T06:42:46;4.53;;;1.20;;
34359;SDS011;20624;55.870;26.506;2022-12-18T06:45:15;39.38;;;35.10;;
34359;SDS011;20624;55.870;26.506;2022-12-18T06:47:43;3.65;;;0.90;;
34359;SDS011;20624;55.870;26.506;2022-12-18T06:50:10;2.72;;;0.75;;
34359;SDS011;20624;55.870;26.506;2022-12-18T06:52:38;4.25;;;1.02;;
34359;SDS011;20624;55.870;26.506;2022-12-18T06:55:06;32.30;;;29.13;;
34359;SDS011;20624;55.870;26.506;2022-12-18T06:57:34;40.53;;;35.95;;
34359;SDS011;20624;55.870;26.506;2022-12-18T07:00:03;3.55;;;0.90;;
34359;SDS011;20624;55.870;26.506;2022-12-18T07:02:31;4.30;;;1.08;;
34359;SDS011;20624;55.870;26.506;2022-12-18T07:04:59;17.00;;;15.80;;
34359;SDS011;20624;55.870;26.506;2022-12-18T07:07:35;31.50;;;28.63;;
34359;SDS011;20624;55.870;26.506;2022-12-18T07:10:03;2.83;;;0.90;;
34359;SDS011;20624;55.870;26.506;2022-12-18T07:12:31;50.08;;;39.40;;
34359;SDS011;20624;55.870;26.506;2022-12-18T07:14:59;2.72;;;0.95;;
34359;SDS011;20624;55.870;26.506;2022-12-18T07:17:27;44.38;;;37.15;;
34359;SDS011;20624;55.870;26.506;2022-12-18T07:19:56;55.28;;;42.03;;
34359;SDS011;20624;55.870;26.506;2022-12-18T07:22:25;62.03;;;45.00;;
34359;SDS011;20624;55.870;26.506;2022-12-18T07:24:52;67.80;;;47.45;;
34359;SDS011;20624;55.870;26.506;2022-12-18T07:27:21;64.80;;;46.00;;
34359;SDS011;20624;55.870;26.506;2022-12-18T07:29:49;4.30;;;1.30;;
34359;SDS011;20624;55.870;26.506;2022-12-18T07:32:17;60.38;;;45.08;;
34359;SDS011;20624;55.870;26.506;2022-12-18T07:34:45;53.95;;;42.05;;
34359;SDS011;20624;55.870;26.506;2022-12-18T07:37:13;3.70;;;1.23;;
34359;SDS011;20624;55.870;26.506;2022-12-18T07:39:41;46.63;;;38.15;;
34359;SDS011;20624;55.870;26.506;2022-12-18T07:42:09;34.60;;;31.20;;
34359;SDS011;20624;55.870;26.506;2022-12-18T07:44:55;3.63;;;0.90;;
34359;SDS011;20624;55.870;26.506;2022-12-18T07:47:23;35.95;;;32.35;;
34359;SDS011;20624;55.870;26.506;2022-12-18T07:49:52;37.50;;;33.63;;
34359;SDS011;20624;55.870;26.506;2022-12-18T07:52:20;3.78;;;1.27;;
34359;SDS011;20624;55.870;26.506;2022-12-18T07:54:51;37.35;;;33.55;;
34359;SDS011;20624;55.870;26.506;2022-12-18T07:57:19;42.50;;;36.33;;
34359;SDS011;20624;55.870;26.506;2022-12-18T08:00:07;46.03;;;37.40;;
34359;SDS011;20624;55.870;26.506;2022-12-18T08:02:35;37.92;;;33.58;;
34359;SDS011;20624;55.870;26.506;2022-12-18T08:05:03;38.08;;;34.10;;
34359;SDS011;20624;55.870;26.506;2022-12-18T08:07:32;40.05;;;35.67;;
34359;SDS011;20624;55.870;26.506;2022-12-18T08:10:00;40.55;;;35.47;;
34359;SDS011;20624;55.870;26.506;2022-12-18T08:12:27;31.85;;;28.65;;
34359;SDS011;20624;55.870;26.506;2022-12-18T08:14:55;43.13;;;37.25;;
34359;SDS011;20624;55.870;26.506;2022-12-18T08:17:23;36.97;;;33.13;;
34359;SDS011;20624;55.870;26.506;2022-12-18T08:19:51;45.15;;;36.95;;
34359;SDS011;20624;55.870;26.506;2022-12-18T08:22:19;42.60;;;36.90;;
34359;SDS011;20624;55.870;26.506;2022-12-18T08:24:48;7.72;;;2.90;;
34359;SDS011;20624;55.870;26.506;2022-12-18T08:27:18;14.63;;;13.27;;
34359;SDS011;20624;55.870;26.506;2022-12-18T08:29:56;35.80;;;32.22;;
34359;SDS011;20624;55.870;26.506;2022-12-18T08:32:24;13.15;;;3.25;;
34359;SDS011;20624;55.870;26.506;2022-12-18T08:34:52;31.05;;;28.02;;
34359;SDS011;20624;55.870;26.506;2022-12-18T08:37:20;35.38;;;31.60;;
34359;SDS011;20624;55.870;26.506;2022-12-18T08:39:48;18.00;;;16.27;;
34359;SDS011;20624;55.870;26.506;2022-12-18T08:42:16;26.85;;;24.63;;
34359;SDS011;20624;55.870;26.506;2022-12-18T08:45:03;25.88;;;23.58;;
34359;SDS011;20624;55.870;26.506;2022-12-18T08:47:30;24.25;;;22.23;;
34359;SDS011;20624;55.870;26.506;2022-12-18T08:49:58;19.20;;;17.40;;
34359;SDS011;20624;55.870;26.506;2022-12-18T08:52:26;24.27;;;22.13;;
34359;SDS011;20624;55.870;26.506;2022-12-18T08:54:54;23.63;;;21.35;;
34359;SDS011;20624;55.870;26.506;2022-12-18T08:57:22;25.55;;;23.20;;
34359;SDS011;20624;55.870;26.506;2022-12-18T08:59:50;14.77;;;13.23;;
34359;SDS011;20624;55.870;26.506;2022-12-18T09:02:18;10.48;;;8.23;;
34359;SDS011;20624;55.870;26.506;2022-12-18T09:04:46;11.90;;;10.57;;
34359;SDS011;20624;55.870;26.506;2022-12-18T09:07:22;13.90;;;11.45;;
34359;SDS011;20624;55.870;26.506;2022-12-18T09:09:50;18.52;;;16.95;;
34359;SDS011;20624;55.870;26.506;2022-12-18T09:12:18;10.73;;;9.57;;
34359;SDS011;20624;55.870;26.506;2022-12-18T09:14:45;14.00;;;12.00;;
34359;SDS011;20624;55.870;26.506;2022-12-18T09:17:13;15.40;;;13.65;;
34359;SDS011;20624;55.870;26.506;2022-12-18T09:19:42;21.52;;;19.75;;
34359;SDS011;20624;55.870;26.506;2022-12-18T09:22:10;8.05;;;2.60;;
34359;SDS011;20624;55.870;26.506;2022-12-18T09:24:38;7.43;;;2.35;;
34359;SDS011;20624;55.870;26.506;2022-12-18T09:29:36;11.95;;;10.43;;
34359;SDS011;20624;55.870;26.506;2022-12-18T09:32:04;10.02;;;9.07;;
34359;SDS011;20624;55.870;26.506;2022-12-18T09:34:32;18.15;;;16.27;;
34359;SDS011;20624;55.870;26.506;2022-12-18T09:37:00;18.95;;;17.05;;
34359;SDS011;20624;55.870;26.506;2022-12-18T09:39:27;25.70;;;23.15;;
34359;SDS011;20624;55.870;26.506;2022-12-18T09:41:56;20.20;;;18.05;;
34359;SDS011;20624;55.870;26.506;2022-12-18T09:44:25;10.95;;;8.63;;
34359;SDS011;20624;55.870;26.506;2022-12-18T09:46:58;32.35;;;29.17;;
34359;SDS011;20624;55.870;26.506;2022-12-18T09:49:27;35.92;;;32.30;;
34359;SDS011;20624;55.870;26.506;2022-12-18T09:52:08;52.30;;;40.67;;
34359;SDS011;20624;55.870;26.506;2022-12-18T09:54:39;70.47;;;48.85;;
34359;SDS011;20624;55.870;26.506;2022-12-18T09:57:11;52.50;;;41.75;;
34359;SDS011;20624;55.870;26.506;2022-12-18T09:59:40;203.60;;;105.00;;
34359;SDS011;20624;55.870;26.506;2022-12-18T10:02:16;225.70;;;114.85;;
34359;SDS011;20624;55.870;26.506;2022-12-18T10:04:45;10.25;;;5.50;;
34359;SDS011;20624;55.870;26.506;2022-12-18T10:07:19;8.32;;;7.18;;
34359;SDS011;20624;55.870;26.506;2022-12-18T10:09:55;14.40;;;12.98;;
34359;SDS011;20624;55.870;26.506;2022-12-18T10:12:27;9.32;;;2.95;;
34359;SDS011;20624;55.870;26.506;2022-12-18T10:14:57;29.30;;;26.20;;
34359;SDS011;20624;55.870;26.506;2022-12-18T10:25:41;303.20;;;152.32;;
34359;SDS011;20624;55.870;26.506;2022-12-18T10:28:13;298.08;;;150.48;;
34359;SDS011;20624;55.870;26.506;2022-12-18T10:30:42;313.38;;;157.80;;
34359;SDS011;20624;55.870;26.506;2022-12-18T10:33:11;292.48;;;146.77;;
34359;SDS011;20624;55.870;26.506;2022-12-18T10:35:40;315.42;;;158.73;;
34359;SDS011;20624;55.870;26.506;2022-12-18T10:40:49;308.42;;;154.63;;
34359;SDS011;20624;55.870;26.506;2022-12-18T10:46:02;309.10;;;155.50;;
34359;SDS011;20624;55.870;26.506;2022-12-18T10:48:30;308.20;;;153.15;;
34359;SDS011;20624;55.870;26.506;2022-12-18T10:50:58;321.92;;;158.05;;
34359;SDS011;20624;55.870;26.506;2022-12-18T10:53:37;324.92;;;162.00;;
34359;SDS011;20624;55.870;26.506;2022-12-18T10:56:06;289.83;;;142.70;;
34359;SDS011;20624;55.870;26.506;2022-12-18T10:58:35;305.75;;;150.30;;
34359;SDS011;20624;55.870;26.506;2022-12-18T11:06:28;6.22;;;2.33;;
34359;SDS011;20624;55.870;26.506;2022-12-18T11:09:08;5.45;;;2.30;;
34359;SDS011;20624;55.870;26.506;2022-12-18T11:11:49;10.25;;;3.47;;
34359;SDS011;20624;55.870;26.506;2022-12-18T11:14:26;14.52;;;5.38;;
34359;SDS011;20624;55.870;26.506;2022-12-18T11:16:55;16.40;;;7.38;;
34359;SDS011;20624;55.870;26.506;2022-12-18T11:19:44;22.30;;;9.63;;
34359;SDS011;20624;55.870;26.506;2022-12-18T11:24:53;15.10;;;7.07;;
34359;SDS011;20624;55.870;26.506;2022-12-18T11:27:46;18.50;;;8.00;;
34359;SDS011;20624;55.870;26.506;2022-12-18T11:30:22;15.32;;;7.40;;
34359;SDS011;20624;55.870;26.506;2022-12-18T11:33:10;18.10;;;6.20;;
34359;SDS011;20624;55.870;26.506;2022-12-18T11:35:49;16.60;;;6.78;;
34359;SDS011;20624;55.870;26.506;2022-12-18T11:38:24;17.92;;;6.22;;
34359;SDS011;20624;55.870;26.506;2022-12-18T11:41:04;14.18;;;6.20;;
34359;SDS011;20624;55.870;26.506;2022-12-18T11:46:06;15.05;;;5.43;;
34359;SDS011;20624;55.870;26.506;2022-12-18T11:51:20;11.77;;;5.30;;
34359;SDS011;20624;55.870;26.506;2022-12-18T11:53:52;20.17;;;5.88;;
34359;SDS011;20624;55.870;26.506;2022-12-18T11:59:01;14.20;;;5.22;;
34359;SDS011;20624;55.870;26.506;2022-12-18T12:01:47;14.02;;;5.47;;
34359;SDS011;20624;55.870;26.506;2022-12-18T12:04:27;20.75;;;5.35;;
34359;SDS011;20624;55.870;26.506;2022-12-18T12:09:32;13.52;;;4.90;;
34359;SDS011;20624;55.870;26.506;2022-12-18T12:14:48;13.88;;;4.57;;
34359;SDS011;20624;55.870;26.506;2022-12-18T12:17:34;8.02;;;3.50;;
34359;SDS011;20624;55.870;26.506;2022-12-18T12:25:29;13.55;;;3.40;;
34359;SDS011;20624;55.870;26.506;2022-12-18T12:28:32;7.93;;;3.42;;
34359;SDS011;20624;55.870;26.506;2022-12-18T12:33:22;8.63;;;3.53;;
34359;SDS011;20624;55.870;26.506;2022-12-18T12:40:51;7.43;;;3.25;;
34359;SDS011;20624;55.870;26.506;2022-12-18T12:43:35;8.75;;;3.13;;
34359;SDS011;20624;55.870;26.506;2022-12-18T12:46:26;6.78;;;3.00;;
34359;SDS011;20624;55.870;26.506;2022-12-18T12:49:01;7.80;;;2.92;;
34359;SDS011;20624;55.870;26.506;2022-12-18T12:51:36;9.40;;;3.33;;
34359;SDS011;20624;55.870;26.506;2022-12-18T12:54:08;8.77;;;3.40;;
34359;SDS011;20624;55.870;26.506;2022-12-18T12:59:34;6.80;;;2.60;;
34359;SDS011;20624;55.870;26.506;2022-12-18T13:07:45;12.00;;;3.30;;
34359;SDS011;20624;55.870;26.506;2022-12-18T13:12:56;8.57;;;2.97;;
34359;SDS011;20624;55.870;26.506;2022-12-18T13:15:38;7.35;;;3.13;;
34359;SDS011;20624;55.870;26.506;2022-12-18T13:20:44;11.32;;;3.33;;
34359;SDS011;20624;55.870;26.506;2022-12-18T13:25:52;9.10;;;2.80;;
34359;SDS011;20624;55.870;26.506;2022-12-18T13:28:24;289.58;;;138.75;;
34359;SDS011;20624;55.870;26.506;2022-12-18T13:31:12;8.18;;;2.70;;
34359;SDS011;20624;55.870;26.506;2022-12-18T13:33:44;291.42;;;139.32;;
34359;SDS011;20624;55.870;26.506;2022-12-18T13:36:32;292.08;;;140.07;;
34359;SDS011;20624;55.870;26.506;2022-12-18T13:41:54;312.60;;;146.45;;
34359;SDS011;20624;55.870;26.506;2022-12-18T13:45:00;306.42;;;146.77;;
34359;SDS011;20624;55.870;26.506;2022-12-18T13:47:33;317.55;;;153.23;;
34359;SDS011;20624;55.870;26.506;2022-12-18T13:50:03;333.58;;;160.07;;
34359;SDS011;20624;55.870;26.506;2022-12-18T13:52:37;338.60;;;163.77;;
34359;SDS011;20624;55.870;26.506;2022-12-18T13:55:07;338.88;;;163.13;;
34359;SDS011;20624;55.870;26.506;2022-12-18T13:57:42;333.80;;;161.95;;
34359;SDS011;20624;55.870;26.506;2022-12-18T14:02:50;335.00;;;161.90;;
34359;SDS011;20624;55.870;26.506;2022-12-18T14:05:25;349.38;;;169.60;;
34359;SDS011;20624;55.870;26.506;2022-12-18T14:07:53;343.77;;;168.63;;
34359;SDS011;20624;55.870;26.506;2022-12-18T14:10:22;345.92;;;170.07;;
34359;SDS011;20624;55.870;26.506;2022-12-18T14:13:10;342.95;;;169.55;;
34359;SDS011;20624;55.870;26.506;2022-12-18T14:15:40;348.15;;;170.65;;
34359;SDS011;20624;55.870;26.506;2022-12-18T14:18:25;356.95;;;175.50;;
34359;SDS011;20624;55.870;26.506;2022-12-18T14:20:54;342.40;;;169.35;;
34359;SDS011;20624;55.870;26.506;2022-12-18T14:23:30;358.20;;;176.35;;
34359;SDS011;20624;55.870;26.506;2022-12-18T14:25:58;372.45;;;185.95;;
34359;SDS011;20624;55.870;26.506;2022-12-18T14:28:31;369.85;;;183.68;;
34359;SDS011;20624;55.870;26.506;2022-12-18T14:30:59;367.88;;;182.48;;
34359;SDS011;20624;55.870;26.506;2022-12-18T14:33:27;354.20;;;174.45;;
34359;SDS011;20624;55.870;26.506;2022-12-18T14:38:27;370.08;;;185.95;;
34359;SDS011;20624;55.870;26.506;2022-12-18T14:40:55;388.65;;;194.73;;
34359;SDS011;20624;55.870;26.506;2022-12-18T14:43:23;372.10;;;185.70;;
34359;SDS011;20624;55.870;26.506;2022-12-18T14:45:51;347.88;;;170.63;;
34359;SDS011;20624;55.870;26.506;2022-12-18T14:48:33;350.02;;;174.07;;
34359;SDS011;20624;55.870;26.506;2022-12-18T14:51:16;348.05;;;174.23;;
34359;SDS011;20624;55.870;26.506;2022-12-18T14:53:48;348.13;;;173.23;;
34359;SDS011;20624;55.870;26.506;2022-12-18T14:56:21;364.13;;;180.18;;
34359;SDS011;20624;55.870;26.506;2022-12-18T14:59:00;356.60;;;178.30;;
34359;SDS011;20624;55.870;26.506;2022-12-18T15:01:37;357.25;;;177.98;;
34359;SDS011;20624;55.870;26.506;2022-12-18T15:04:25;354.45;;;177.23;;
34359;SDS011;20624;55.870;26.506;2022-12-18T15:07:03;363.40;;;181.57;;
34359;SDS011;20624;55.870;26.506;2022-12-18T15:09:31;358.58;;;179.18;;
34359;SDS011;20624;55.870;26.506;2022-12-18T15:11:59;379.63;;;191.15;;
34359;SDS011;20624;55.870;26.506;2022-12-18T15:14:35;381.67;;;189.32;;
34359;SDS011;20624;55.870;26.506;2022-12-18T15:17:14;379.70;;;191.00;;
34359;SDS011;20624;55.870;26.506;2022-12-18T15:19:42;367.83;;;184.75;;
34359;SDS011;20624;55.870;26.506;2022-12-18T15:22:21;372.15;;;187.23;;
34359;SDS011;20624;55.870;26.506;2022-12-18T15:24:50;388.58;;;196.75;;
34359;SDS011;20624;55.870;26.506;2022-12-18T15:27:39;372.95;;;187.05;;
34359;SDS011;20624;55.870;26.506;2022-12-18T15:32:37;359.67;;;181.23;;
34359;SDS011;20624;55.870;26.506;2022-12-18T15:37:36;373.40;;;187.52;;
34359;SDS011;20624;55.870;26.506;2022-12-18T15:40:05;374.85;;;188.68;;
34359;SDS011;20624;55.870;26.506;2022-12-18T15:42:33;367.58;;;183.32;;
34359;SDS011;20624;55.870;26.506;2022-12-18T15:45:19;368.05;;;184.95;;
34359;SDS011;20624;55.870;26.506;2022-12-18T15:47:49;370.13;;;184.65;;
34359;SDS011;20624;55.870;26.506;2022-12-18T15:50:16;374.27;;;188.43;;
34359;SDS011;20624;55.870;26.506;2022-12-18T15:52:45;363.55;;;180.73;;
34359;SDS011;20624;55.870;26.506;2022-12-18T15:55:14;361.67;;;181.05;;
34359;SDS011;20624;55.870;26.506;2022-12-18T15:58:02;360.70;;;182.02;;
34359;SDS011;20624;55.870;26.506;2022-12-18T16:00:31;369.35;;;186.23;;
34359;SDS011;20624;55.870;26.506;2022-12-18T16:02:59;361.27;;;182.02;;
34359;SDS011;20624;55.870;26.506;2022-12-18T16:05:27;374.98;;;189.65;;
34359;SDS011;20624;55.870;26.506;2022-12-18T16:07:54;357.55;;;179.15;;
34359;SDS011;20624;55.870;26.506;2022-12-18T16:10:22;350.67;;;174.10;;